createdAt,value
2023-10-12T00:00:22.850Z,18.56
2023-10-12T00:02:59.408Z,18.55
2023-10-12T00:05:18.418Z,18.57
2023-10-12T00:07:43.972Z,18.57
2023-10-12T00:10:15.221Z,18.59
2023-10-12T00:12:27.962Z,18.59
2023-10-12T00:14:42.661Z,18.62
2023-10-12T00:16:56.164Z,18.63
2023-10-12T00:19:13.264Z,18.65
2023-10-12T00:21:28.701Z,18.65
2023-10-12T00:23:42.983Z,18.65
2023-10-12T00:25:56.008Z,18.65
2023-10-12T00:28:08.970Z,18.64
2023-10-12T00:30:22.153Z,18.65
2023-10-12T00:32:35.323Z,18.64
2023-10-12T00:34:48.865Z,18.63
2023-10-12T00:37:04.279Z,18.63
2023-10-12T00:39:16.962Z,18.61
2023-10-12T00:41:30.847Z,18.58
2023-10-12T00:44:23.848Z,18.55
2023-10-12T00:46:39.982Z,18.48
2023-10-12T00:49:13.858Z,18.46
2023-10-12T00:51:27.344Z,18.40
2023-10-12T00:53:39.998Z,18.40
2023-10-12T00:55:53.131Z,18.39
2023-10-12T00:58:06.927Z,18.40
2023-10-12T01:00:20.181Z,18.40
2023-10-12T01:02:40.946Z,18.41
2023-10-12T01:04:54.736Z,18.41
2023-10-12T01:07:12.471Z,18.39
2023-10-12T01:09:27.309Z,18.39
2023-10-12T01:11:39.999Z,18.38
2023-10-12T01:13:59.833Z,18.36
2023-10-12T01:16:24.541Z,18.34
2023-10-12T01:18:39.584Z,18.31
2023-10-12T01:20:52.282Z,18.29
2023-10-12T01:23:04.968Z,18.27
2023-10-12T01:25:22.846Z,18.26
2023-10-12T01:27:35.679Z,18.24
2023-10-12T01:29:49.556Z,18.22
2023-10-12T01:32:10.836Z,18.19
2023-10-12T01:34:26.169Z,18.15
2023-10-12T01:36:39.169Z,18.12
2023-10-12T01:38:52.718Z,18.08
2023-10-12T01:41:10.861Z,18.07
2023-10-12T01:43:28.546Z,18.06
2023-10-12T01:45:44.991Z,18.05
2023-10-12T01:48:06.608Z,18.04
2023-10-12T01:50:19.275Z,18.01
2023-10-12T01:52:31.959Z,18.00
2023-10-12T01:54:45.556Z,18.01
2023-10-12T01:56:58.217Z,18.00
2023-10-12T01:59:10.920Z,18.01
2023-10-12T02:01:26.023Z,18.00
2023-10-12T02:03:45.129Z,17.99
2023-10-12T02:06:06.027Z,17.97
2023-10-12T02:08:21.829Z,17.95
2023-10-12T02:10:42.690Z,17.93
2023-10-12T02:12:56.793Z,17.91
2023-10-12T02:15:16.124Z,17.91
2023-10-12T02:17:28.850Z,17.86
2023-10-12T02:19:44.249Z,17.83
2023-10-12T02:22:02.563Z,17.82
2023-10-12T02:24:15.966Z,17.81
2023-10-12T02:26:37.418Z,17.81
2023-10-12T02:28:54.670Z,17.79
2023-10-12T02:31:07.463Z,17.80
2023-10-12T02:33:25.304Z,17.81
2023-10-12T02:35:38.312Z,17.84
2023-10-12T02:37:51.561Z,17.87
2023-10-12T02:40:05.384Z,17.91
2023-10-12T02:42:19.075Z,17.94
2023-10-12T02:44:35.428Z,17.99
2023-10-12T02:47:10.689Z,18.02
2023-10-12T02:49:25.446Z,18.04
2023-10-12T02:51:40.224Z,18.09
2023-10-12T02:53:52.958Z,18.13
2023-10-12T02:56:06.441Z,18.14
2023-10-12T02:58:20.638Z,18.14
2023-10-12T03:00:39.851Z,18.15
2023-10-12T03:02:54.647Z,18.15
2023-10-12T03:05:08.604Z,18.17
2023-10-12T03:07:25.218Z,18.14
2023-10-12T03:09:38.513Z,18.10
2023-10-12T03:11:57.378Z,18.08
2023-10-12T03:14:17.786Z,18.05
2023-10-12T03:16:42.426Z,18.04
2023-10-12T03:19:13.959Z,18.01
2023-10-12T03:21:28.899Z,17.98
2023-10-12T03:23:47.368Z,17.95
2023-10-12T03:26:30.893Z,17.94
2023-10-12T03:28:45.413Z,17.88
2023-10-12T03:31:16.382Z,17.84
2023-10-12T03:33:30.029Z,17.81
2023-10-12T03:36:04.026Z,17.79
2023-10-12T03:38:20.098Z,17.73
2023-10-12T03:40:51.910Z,17.68
2023-10-12T03:43:14.159Z,17.62
2023-10-12T03:45:35.551Z,17.59
2023-10-12T03:48:03.793Z,17.55
2023-10-12T03:50:19.700Z,17.49
2023-10-12T03:52:47.411Z,17.47
2023-10-12T03:55:00.003Z,17.43
2023-10-12T03:57:24.128Z,17.42
2023-10-12T04:00:00.069Z,17.40
2023-10-12T04:02:16.485Z,17.35
2023-10-12T04:04:46.704Z,17.35
2023-10-12T04:07:02.310Z,17.34
2023-10-12T04:09:16.478Z,17.33
2023-10-12T04:11:51.664Z,17.32
2023-10-12T04:14:19.536Z,17.29
2023-10-12T04:16:41.572Z,17.28
2023-10-12T04:18:54.951Z,17.29
2023-10-12T04:21:08.618Z,17.29
2023-10-12T04:23:40.093Z,17.30
2023-10-12T04:26:12.692Z,17.30
2023-10-12T04:28:25.360Z,17.30
2023-10-12T04:31:03.746Z,17.32
2023-10-12T04:33:19.207Z,17.32
2023-10-12T04:35:50.207Z,17.36
2023-10-12T04:38:09.991Z,17.40
2023-10-12T04:40:37.977Z,17.41
2023-10-12T04:42:54.590Z,17.43
2023-10-12T04:45:25.040Z,17.45
2023-10-12T04:47:37.859Z,17.45
2023-10-12T04:49:50.522Z,17.46
2023-10-12T04:52:10.215Z,17.46
2023-10-12T04:54:25.737Z,17.47
2023-10-12T04:56:38.362Z,17.47
2023-10-12T04:58:57.881Z,17.47
2023-10-12T05:01:21.279Z,17.46
2023-10-12T05:03:35.627Z,17.44
2023-10-12T05:06:11.993Z,17.43
2023-10-12T05:08:24.621Z,17.40
2023-10-12T05:10:40.604Z,17.40
2023-10-12T05:12:59.228Z,17.40
2023-10-12T05:15:12.948Z,17.40
2023-10-12T05:17:25.906Z,17.40
2023-10-12T05:19:39.449Z,17.41
2023-10-12T05:21:55.349Z,17.42
2023-10-12T05:24:09.980Z,17.43
2023-10-12T05:26:26.922Z,17.44
2023-10-12T05:28:49.146Z,17.44
2023-10-12T05:31:08.158Z,17.45
2023-10-12T05:33:36.321Z,17.46
2023-10-12T05:35:54.005Z,17.44
2023-10-12T05:38:08.180Z,17.46
2023-10-12T05:40:21.892Z,17.47
2023-10-12T05:42:40.646Z,17.48
2023-10-12T05:45:06.514Z,17.48
2023-10-12T05:47:29.557Z,17.48
2023-10-12T05:49:42.737Z,17.49
2023-10-12T05:51:55.973Z,17.51
2023-10-12T05:54:08.984Z,17.54
2023-10-12T05:56:21.701Z,17.56
2023-10-12T05:58:35.601Z,17.58
2023-10-12T06:00:53.535Z,17.59
2023-10-12T06:03:06.757Z,17.60
2023-10-12T06:05:19.369Z,17.63
2023-10-12T06:07:32.037Z,17.66
2023-10-12T06:09:44.814Z,17.67
2023-10-12T06:11:57.625Z,17.69
2023-10-12T06:14:10.763Z,17.74
2023-10-12T06:16:25.256Z,17.78
2023-10-12T06:18:39.018Z,17.82
2023-10-12T06:21:10.979Z,17.87
2023-10-12T06:23:23.626Z,17.90
2023-10-12T06:25:47.454Z,17.93
2023-10-12T06:28:15.394Z,17.95
2023-10-12T06:30:28.195Z,17.98
2023-10-12T06:32:41.016Z,18.05
2023-10-12T06:35:13.371Z,18.12
2023-10-12T06:37:52.025Z,18.17
2023-10-12T06:40:43.306Z,18.23
2023-10-12T06:43:14.829Z,18.29
2023-10-12T06:45:29.194Z,18.35
2023-10-12T06:47:42.825Z,18.42
2023-10-12T06:50:01.245Z,18.46
2023-10-12T06:52:20.171Z,18.48
2023-10-12T06:54:39.204Z,18.53
2023-10-12T06:56:52.759Z,18.57
2023-10-12T06:59:09.720Z,18.61
2023-10-12T07:01:28.806Z,18.65
2023-10-12T07:03:41.814Z,18.68
2023-10-12T07:05:54.512Z,18.69
2023-10-12T07:08:09.740Z,18.74
2023-10-12T07:10:29.433Z,18.79
2023-10-12T07:12:45.486Z,18.83
2023-10-12T07:14:58.228Z,18.85
2023-10-12T07:17:10.847Z,18.89
2023-10-12T07:19:28.568Z,18.94
2023-10-12T07:21:41.258Z,18.98
2023-10-12T07:23:53.908Z,19.05
2023-10-12T07:26:13.771Z,19.09
2023-10-12T07:28:35.345Z,19.10
2023-10-12T07:31:06.845Z,19.13
2023-10-12T07:33:23.447Z,19.18
2023-10-12T07:35:37.532Z,19.27
2023-10-12T07:37:50.241Z,19.36
2023-10-12T07:40:18.642Z,19.47
2023-10-12T07:42:32.735Z,19.53
2023-10-12T07:44:54.918Z,19.58
2023-10-12T07:47:20.102Z,19.63
2023-10-12T07:49:36.102Z,19.64
2023-10-12T07:52:05.588Z,19.69
2023-10-12T07:54:38.208Z,19.75
2023-10-12T07:56:53.991Z,19.78
2023-10-12T07:59:15.233Z,19.83
2023-10-12T08:01:29.197Z,19.86
2023-10-12T08:03:43.238Z,19.88
2023-10-12T08:06:00.278Z,19.88
2023-10-12T08:08:34.609Z,19.90
2023-10-12T08:10:47.228Z,19.94
2023-10-12T08:13:06.156Z,19.99
2023-10-12T08:15:18.812Z,20.04
2023-10-12T08:17:34.807Z,20.07
2023-10-12T08:19:47.964Z,20.08
2023-10-12T08:22:01.679Z,20.08
2023-10-12T08:24:20.540Z,20.05
2023-10-12T08:26:39.362Z,19.99
2023-10-12T08:28:56.769Z,19.98
2023-10-12T08:31:17.098Z,20.05
2023-10-12T08:33:48.603Z,20.14
2023-10-12T08:36:16.314Z,20.18
2023-10-12T08:38:34.707Z,20.21
2023-10-12T08:41:16.385Z,20.23
2023-10-12T08:43:49.937Z,20.24
2023-10-12T08:46:08.075Z,20.25
2023-10-12T08:48:20.875Z,20.29
2023-10-12T08:50:59.493Z,20.30
2023-10-12T08:53:20.021Z,20.27
2023-10-12T08:55:33.213Z,20.27
2023-10-12T08:58:04.462Z,20.30
2023-10-12T09:00:23.398Z,20.30
2023-10-12T09:02:40.258Z,20.32
2023-10-12T09:04:54.660Z,20.35
2023-10-12T09:07:07.426Z,20.40
2023-10-12T09:09:38.760Z,20.45
2023-10-12T09:12:01.008Z,20.49
2023-10-12T09:14:18.510Z,20.55
2023-10-12T09:16:31.675Z,20.66
2023-10-12T09:18:46.658Z,20.71
2023-10-12T09:21:19.098Z,20.74
2023-10-12T09:23:53.871Z,20.67
2023-10-12T09:26:10.279Z,20.63
2023-10-12T09:28:27.284Z,20.64
2023-10-12T09:30:46.154Z,20.64
2023-10-12T09:33:30.145Z,20.65
2023-10-12T09:35:42.829Z,20.58
2023-10-12T09:37:55.673Z,20.59
2023-10-12T09:40:25.257Z,20.60
2023-10-12T09:42:39.412Z,20.56
2023-10-12T09:45:02.657Z,20.55
2023-10-12T09:47:17.042Z,20.53
2023-10-12T09:49:31.418Z,20.51
2023-10-12T09:51:49.041Z,20.46
2023-10-12T09:54:10.664Z,20.35
2023-10-12T09:56:29.445Z,20.24
2023-10-12T09:58:52.549Z,20.12
2023-10-12T10:01:16.693Z,19.99
2023-10-12T10:03:38.825Z,19.83
2023-10-12T10:05:57.166Z,19.74
2023-10-12T10:08:10.053Z,19.64
2023-10-12T10:10:31.852Z,19.55
2023-10-12T10:12:44.687Z,19.49
2023-10-12T10:15:01.203Z,19.38
2023-10-12T10:17:19.864Z,19.28
2023-10-12T10:19:33.707Z,19.21
2023-10-12T10:21:52.071Z,19.12
2023-10-12T10:24:13.532Z,19.03
2023-10-12T10:26:31.711Z,18.95
2023-10-12T10:28:55.830Z,18.96
2023-10-12T10:31:12.696Z,18.91
2023-10-12T10:33:26.176Z,18.90
2023-10-12T10:35:58.798Z,18.90
2023-10-12T10:38:12.400Z,18.87
2023-10-12T10:40:47.406Z,18.84
2023-10-12T10:43:06.541Z,18.80
2023-10-12T10:45:20.485Z,18.73
2023-10-12T10:47:33.349Z,18.72
2023-10-12T10:49:49.942Z,18.69
2023-10-12T10:52:07.753Z,18.63
2023-10-12T10:54:21.194Z,18.58
2023-10-12T10:56:36.442Z,18.56
2023-10-12T10:58:49.796Z,18.50
2023-10-12T11:01:06.911Z,18.44
2023-10-12T11:03:19.843Z,18.43
2023-10-12T11:05:35.458Z,18.41
2023-10-12T11:07:52.259Z,18.42
2023-10-12T11:10:15.312Z,18.41
2023-10-12T11:12:32.935Z,18.38
2023-10-12T11:14:53.648Z,18.28
2023-10-12T11:17:06.606Z,18.24
2023-10-12T11:19:24.889Z,18.22
2023-10-12T11:21:43.504Z,18.20
2023-10-12T11:24:10.799Z,18.18
2023-10-12T11:26:23.562Z,18.19
2023-10-12T11:28:38.538Z,18.21
2023-10-12T11:31:03.190Z,18.23
2023-10-12T11:33:18.108Z,18.25
2023-10-12T11:35:45.506Z,18.26
2023-10-12T11:37:58.897Z,18.24
2023-10-12T11:40:28.347Z,18.19
2023-10-12T11:42:54.378Z,18.13
2023-10-12T11:45:12.689Z,18.10
2023-10-12T11:47:25.455Z,18.03
2023-10-12T11:49:57.695Z,17.98
2023-10-12T11:52:16.441Z,17.89
2023-10-12T11:54:34.031Z,17.87
2023-10-12T11:56:50.850Z,17.86
2023-10-12T11:59:06.613Z,17.87
2023-10-12T12:01:19.831Z,17.89
2023-10-12T12:03:41.110Z,17.86
2023-10-12T12:05:54.226Z,17.83
2023-10-12T12:08:07.622Z,17.80
2023-10-12T12:10:27.465Z,17.80
2023-10-12T12:12:40.288Z,17.76
2023-10-12T12:14:52.956Z,17.77
2023-10-12T12:17:05.757Z,17.81
2023-10-12T12:19:25.272Z,17.80
2023-10-12T12:21:38.764Z,17.80
2023-10-12T12:23:51.749Z,17.79
2023-10-12T12:26:15.326Z,17.77
2023-10-12T12:28:33.280Z,17.75
2023-10-12T12:30:59.969Z,17.76
2023-10-12T12:33:18.846Z,17.76
2023-10-12T12:35:31.918Z,17.74
2023-10-12T12:37:44.510Z,17.73
2023-10-12T12:40:23.057Z,17.74
2023-10-12T12:42:35.636Z,17.71
2023-10-12T12:44:48.240Z,17.74
2023-10-12T12:47:01.046Z,17.77
2023-10-12T12:49:15.010Z,17.80
2023-10-12T12:51:27.770Z,17.80
2023-10-12T12:53:40.617Z,17.83
2023-10-12T12:55:53.267Z,17.90
2023-10-12T12:58:07.240Z,17.96
2023-10-12T13:00:23.184Z,17.98
2023-10-12T13:02:37.194Z,17.98
2023-10-12T13:04:50.878Z,17.99
2023-10-12T13:07:10.033Z,17.98
2023-10-12T13:09:35.530Z,17.94
2023-10-12T13:11:48.575Z,17.87
2023-10-12T13:14:01.329Z,17.82
2023-10-12T13:16:14.169Z,17.81
2023-10-12T13:18:30.607Z,17.74
2023-10-12T13:20:47.728Z,17.69
2023-10-12T13:23:00.641Z,17.60
2023-10-12T13:25:14.993Z,17.54
2023-10-12T13:27:30.529Z,17.48
2023-10-12T13:29:44.519Z,17.46
2023-10-12T13:31:57.408Z,17.45
2023-10-12T13:34:11.768Z,17.43
2023-10-12T13:36:24.572Z,17.42
2023-10-12T13:38:38.508Z,17.40
2023-10-12T13:40:51.519Z,17.37
2023-10-12T13:43:19.576Z,17.37
2023-10-12T13:45:33.232Z,17.33
2023-10-12T13:47:49.449Z,17.35
2023-10-12T13:50:02.115Z,17.36
2023-10-12T13:52:14.869Z,17.34
2023-10-12T13:54:41.722Z,17.34
2023-10-12T13:56:57.387Z,17.28
2023-10-12T13:59:10.310Z,17.24
2023-10-12T14:01:24.859Z,17.23
2023-10-12T14:03:39.798Z,17.19
2023-10-12T14:05:52.681Z,17.13
2023-10-12T14:08:05.464Z,17.10
2023-10-12T14:10:19.910Z,17.06
2023-10-12T14:12:34.216Z,17.02
2023-10-12T14:14:46.875Z,16.99
2023-10-12T14:16:59.657Z,16.93
2023-10-12T14:19:12.527Z,16.86
2023-10-12T14:21:30.707Z,16.80
2023-10-12T14:23:49.244Z,16.73
2023-10-12T14:26:01.829Z,16.68
2023-10-12T14:28:18.396Z,16.65
2023-10-12T14:30:31.104Z,16.64
2023-10-12T14:32:43.796Z,16.61
2023-10-12T14:34:56.460Z,16.54
2023-10-12T14:37:14.729Z,16.48
2023-10-12T14:39:31.149Z,16.40
2023-10-12T14:41:43.904Z,16.35
2023-10-12T14:43:56.935Z,16.32
2023-10-12T14:46:11.816Z,16.30
2023-10-12T14:48:25.114Z,16.27
2023-10-12T14:50:39.246Z,16.24
2023-10-12T14:52:54.905Z,16.21
2023-10-12T14:55:14.381Z,16.19
2023-10-12T14:57:28.251Z,16.15
2023-10-12T14:59:41.576Z,16.14
2023-10-12T15:01:54.346Z,16.13
2023-10-12T15:04:08.661Z,16.11
2023-10-12T15:06:21.791Z,16.11
2023-10-12T15:08:37.484Z,16.11
2023-10-12T15:10:50.426Z,16.11
2023-10-12T15:13:05.183Z,16.11
2023-10-12T15:15:28.152Z,16.11
2023-10-12T15:17:40.842Z,16.11
2023-10-12T15:19:54.247Z,16.10
2023-10-12T15:22:07.661Z,16.09
2023-10-12T15:24:20.557Z,16.09
2023-10-12T15:26:33.964Z,16.09
2023-10-12T15:28:50.455Z,16.08
2023-10-12T15:31:05.219Z,16.06
2023-10-12T15:33:18.059Z,16.06
2023-10-12T15:35:32.028Z,16.04
2023-10-12T15:37:47.446Z,16.03
2023-10-12T15:40:01.251Z,16.02
2023-10-12T15:42:14.127Z,16.01
2023-10-12T15:44:27.838Z,16.00
2023-10-12T15:46:41.372Z,16.01
2023-10-12T15:48:54.163Z,16.00
2023-10-12T15:51:18.767Z,16.00
2023-10-12T15:53:31.534Z,15.98
2023-10-12T15:55:45.832Z,15.98
2023-10-12T15:57:58.588Z,16.01
2023-10-12T16:00:23.679Z,16.03
2023-10-12T16:02:37.347Z,16.02
2023-10-12T16:04:50.369Z,16.02
2023-10-12T16:07:06.944Z,15.99
2023-10-12T16:09:22.033Z,16.01
2023-10-12T16:11:39.605Z,16.03
2023-10-12T16:13:53.506Z,16.04
2023-10-12T16:16:13.382Z,16.08
2023-10-12T16:18:26.526Z,16.09
2023-10-12T16:20:39.139Z,16.10
2023-10-12T16:22:51.936Z,16.11
2023-10-12T16:25:08.359Z,16.11
2023-10-12T16:27:21.171Z,16.10
2023-10-12T16:29:45.048Z,16.12
2023-10-12T16:32:06.312Z,16.12
2023-10-12T16:34:20.116Z,16.14
2023-10-12T16:36:36.887Z,16.17
2023-10-12T16:38:51.995Z,16.18
2023-10-12T16:41:08.830Z,16.19
2023-10-12T16:43:24.874Z,16.20
2023-10-12T16:45:37.616Z,16.20
2023-10-12T16:47:51.248Z,16.20
2023-10-12T16:50:06.002Z,16.20
2023-10-12T16:52:18.704Z,16.19
2023-10-12T16:54:31.562Z,16.18
2023-10-12T16:56:45.542Z,16.18
2023-10-12T16:58:58.401Z,16.17
2023-10-12T17:01:15.110Z,16.15
2023-10-12T17:03:31.153Z,16.16
2023-10-12T17:05:45.917Z,16.15
2023-10-12T17:07:58.963Z,16.16
2023-10-12T17:10:24.676Z,16.17
2023-10-12T17:12:38.948Z,16.14
2023-10-12T17:14:52.760Z,16.14
2023-10-12T17:17:06.065Z,16.16
2023-10-12T17:19:19.151Z,16.16
2023-10-12T17:21:33.410Z,16.17
2023-10-12T17:23:46.592Z,16.17
2023-10-12T17:26:00.050Z,16.16
2023-10-12T17:28:13.124Z,16.13
2023-10-12T17:30:25.780Z,16.12
2023-10-12T17:32:40.089Z,16.11
2023-10-12T17:34:54.768Z,16.10
2023-10-12T17:37:08.199Z,16.10
2023-10-12T17:39:21.683Z,16.11
2023-10-12T17:41:34.493Z,16.09
2023-10-12T17:43:52.764Z,16.09
2023-10-12T17:46:05.483Z,16.09
2023-10-12T17:48:20.636Z,16.10
2023-10-12T17:50:39.307Z,16.08
2023-10-12T17:52:55.510Z,16.05
2023-10-12T17:55:09.430Z,16.04
2023-10-12T17:57:22.286Z,16.02
2023-10-12T17:59:34.934Z,16.03
2023-10-12T18:01:48.628Z,16.03
2023-10-12T18:04:01.944Z,16.02
2023-10-12T18:06:14.866Z,16.02
2023-10-12T18:08:27.446Z,16.02
2023-10-12T18:10:44.197Z,16.00
2023-10-12T18:12:57.284Z,15.98
2023-10-12T18:15:10.541Z,15.97
2023-10-12T18:17:26.505Z,15.96
2023-10-12T18:19:39.890Z,15.94
2023-10-12T18:21:52.936Z,15.94
2023-10-12T18:24:05.948Z,15.95
2023-10-12T18:26:19.813Z,15.97
2023-10-12T18:28:34.050Z,15.98
2023-10-12T18:30:58.314Z,15.96
2023-10-12T18:33:14.532Z,15.95
2023-10-12T18:35:27.208Z,15.93
2023-10-12T18:37:40.478Z,15.92
2023-10-12T18:39:53.568Z,15.90
2023-10-12T18:42:06.520Z,15.90
2023-10-12T18:44:19.257Z,15.88
2023-10-12T18:46:32.246Z,15.87
2023-10-12T18:48:45.411Z,15.84
2023-10-12T18:51:00.121Z,15.82
2023-10-12T18:53:12.715Z,15.80
2023-10-12T18:55:25.341Z,15.78
2023-10-12T18:57:40.770Z,15.77
2023-10-12T18:59:53.711Z,15.76
2023-10-12T19:02:06.500Z,15.75
2023-10-12T19:04:20.605Z,15.74
2023-10-12T19:06:35.291Z,15.75
2023-10-12T19:08:47.984Z,15.77
2023-10-12T19:11:11.295Z,15.76
2023-10-12T19:13:24.807Z,15.77
2023-10-12T19:15:37.852Z,15.77
2023-10-12T19:17:50.494Z,15.77
2023-10-12T19:20:05.032Z,15.78
2023-10-12T19:22:17.738Z,15.78
2023-10-12T19:24:30.674Z,15.78
2023-10-12T19:26:43.541Z,15.78
2023-10-12T19:28:56.326Z,15.77
2023-10-12T19:31:13.689Z,15.76
2023-10-12T19:33:27.148Z,15.76
2023-10-12T19:35:41.936Z,15.75
2023-10-12T19:37:55.444Z,15.73
2023-10-12T19:40:17.213Z,15.70
2023-10-12T19:42:30.119Z,15.67
2023-10-12T19:44:44.439Z,15.66
2023-10-12T19:46:57.319Z,15.64
2023-10-12T19:49:11.883Z,15.65
2023-10-12T19:51:24.729Z,15.66
2023-10-12T19:53:38.202Z,15.66
2023-10-12T19:55:51.156Z,15.66
2023-10-12T19:58:06.809Z,15.65
2023-10-12T20:00:26.999Z,15.65
2023-10-12T20:02:45.204Z,15.65
2023-10-12T20:04:58.067Z,15.66
2023-10-12T20:07:12.183Z,15.67
2023-10-12T20:09:31.200Z,15.67
2023-10-12T20:11:43.959Z,15.67
2023-10-12T20:13:56.946Z,15.66
2023-10-12T20:16:13.015Z,15.64
2023-10-12T20:18:25.849Z,15.63
2023-10-12T20:20:42.115Z,15.63
2023-10-12T20:22:57.150Z,15.62
2023-10-12T20:25:13.153Z,15.61
2023-10-12T20:27:26.059Z,15.60
2023-10-12T20:29:40.949Z,15.59
2023-10-12T20:31:54.094Z,15.58
2023-10-12T20:34:06.962Z,15.54
2023-10-12T20:36:19.525Z,15.52
2023-10-12T20:38:34.185Z,15.50
2023-10-12T20:40:47.868Z,15.47
2023-10-12T20:43:00.654Z,15.45
2023-10-12T20:45:13.505Z,15.42
2023-10-12T20:47:26.386Z,15.39
2023-10-12T20:49:40.674Z,15.36
2023-10-12T20:51:53.508Z,15.33
2023-10-12T20:54:13.692Z,15.30
2023-10-12T20:56:30.095Z,15.28
2023-10-12T20:58:44.148Z,15.28
2023-10-12T21:01:04.451Z,15.28
2023-10-12T21:03:23.651Z,15.29
2023-10-12T21:05:38.120Z,15.31
2023-10-12T21:07:53.329Z,15.32
2023-10-12T21:10:13.497Z,15.31
2023-10-12T21:12:28.284Z,15.27
2023-10-12T21:14:45.008Z,15.27
2023-10-12T21:16:58.036Z,15.25
2023-10-12T21:19:21.735Z,15.24
2023-10-12T21:21:34.771Z,15.23
2023-10-12T21:23:47.520Z,15.22
2023-10-12T21:26:03.684Z,15.23
2023-10-12T21:28:16.923Z,15.22
2023-10-12T21:30:37.696Z,15.22
2023-10-12T21:32:50.707Z,15.21
2023-10-12T21:35:08.659Z,15.21
2023-10-12T21:37:21.525Z,15.20
2023-10-12T21:39:37.163Z,15.20
2023-10-12T21:41:51.995Z,15.19
2023-10-12T21:44:09.033Z,15.18
2023-10-12T21:46:23.083Z,15.17
2023-10-12T21:48:36.021Z,15.16
2023-10-12T21:50:48.687Z,15.14
2023-10-12T21:53:02.153Z,15.11
2023-10-12T21:55:15.943Z,15.09
2023-10-12T21:57:31.165Z,15.07
2023-10-12T21:59:43.855Z,15.06
2023-10-12T22:02:14.744Z,15.05
2023-10-12T22:04:35.579Z,15.01
2023-10-12T22:06:51.768Z,15.00
2023-10-12T22:09:05.875Z,14.99
2023-10-12T22:11:21.712Z,14.99
2023-10-12T22:13:52.824Z,14.98
2023-10-12T22:16:05.700Z,14.96
2023-10-12T22:18:20.328Z,14.96
2023-10-12T22:20:33.108Z,14.95
2023-10-12T22:22:46.864Z,14.89
2023-10-12T22:24:59.508Z,14.83
2023-10-12T22:27:15.062Z,14.80
2023-10-12T22:29:29.034Z,14.81
2023-10-12T22:31:48.340Z,14.81
2023-10-12T22:34:03.810Z,14.80
2023-10-12T22:36:20.971Z,14.81
2023-10-12T22:38:33.982Z,14.80
2023-10-12T22:40:46.574Z,14.81
2023-10-12T22:42:59.209Z,14.82
2023-10-12T22:45:16.754Z,14.81
2023-10-12T22:47:29.698Z,14.79
2023-10-12T22:49:42.352Z,14.76
2023-10-12T22:51:55.048Z,14.72
2023-10-12T22:54:08.209Z,14.68
2023-10-12T22:56:21.634Z,14.64
2023-10-12T22:58:34.264Z,14.62
2023-10-12T23:00:47.108Z,14.63
2023-10-12T23:02:59.843Z,14.64
2023-10-12T23:05:16.119Z,14.64
2023-10-12T23:07:29.034Z,14.65
2023-10-12T23:09:43.196Z,14.68
2023-10-12T23:11:56.520Z,14.69
2023-10-12T23:14:12.619Z,14.68
2023-10-12T23:16:36.232Z,14.65
2023-10-12T23:18:55.297Z,14.61
2023-10-12T23:21:16.024Z,14.59
2023-10-12T23:23:29.101Z,14.58
2023-10-12T23:25:48.404Z,14.53
2023-10-12T23:28:01.156Z,14.50
2023-10-12T23:30:20.020Z,14.49
2023-10-12T23:32:34.016Z,14.47
2023-10-12T23:34:46.800Z,14.45
2023-10-12T23:36:59.805Z,14.44
2023-10-12T23:39:15.700Z,14.43
2023-10-12T23:41:34.969Z,14.44
2023-10-12T23:43:56.312Z,14.43
2023-10-12T23:46:13.246Z,14.37
2023-10-12T23:48:25.984Z,14.36
2023-10-12T23:50:51.408Z,14.36
2023-10-12T23:53:19.069Z,14.34
2023-10-12T23:55:32.173Z,14.32
2023-10-12T23:57:44.867Z,14.34
